sensor_id;sensor_type;location;lat;lon;timestamp;P1;durP1;ratioP1;P2;durP2;ratioP2
75851;SDS011;64500;52.632;20.656;2022-10-30T00:00:28;22.00;;;10.70;;
75851;SDS011;64500;52.632;20.656;2022-10-30T00:03:15;41.10;;;11.70;;
75851;SDS011;64500;52.632;20.656;2022-10-30T00:05:43;21.80;;;11.20;;
75851;SDS011;64500;52.632;20.656;2022-10-30T00:08:15;19.30;;;10.80;;
75851;SDS011;64500;52.632;20.656;2022-10-30T00:10:44;17.60;;;10.30;;
75851;SDS011;64500;52.632;20.656;2022-10-30T00:13:12;19.30;;;10.60;;
75851;SDS011;64500;52.632;20.656;2022-10-30T00:15:39;23.50;;;11.40;;
75851;SDS011;64500;52.632;20.656;2022-10-30T00:18:16;18.20;;;10.40;;
75851;SDS011;64500;52.632;20.656;2022-10-30T00:20:43;18.70;;;10.80;;
75851;SDS011;64500;52.632;20.656;2022-10-30T00:23:09;19.60;;;11.00;;
75851;SDS011;64500;52.632;20.656;2022-10-30T00:25:36;21.20;;;11.30;;
75851;SDS011;64500;52.632;20.656;2022-10-30T00:28:04;19.20;;;10.60;;
75851;SDS011;64500;52.632;20.656;2022-10-30T00:30:33;21.40;;;11.20;;
75851;SDS011;64500;52.632;20.656;2022-10-30T00:33:00;19.20;;;11.20;;
75851;SDS011;64500;52.632;20.656;2022-10-30T00:35:28;21.20;;;11.10;;
75851;SDS011;64500;52.632;20.656;2022-10-30T00:37:55;22.40;;;11.20;;
75851;SDS011;64500;52.632;20.656;2022-10-30T00:40:22;23.40;;;11.60;;
75851;SDS011;64500;52.632;20.656;2022-10-30T00:42:49;21.20;;;11.40;;
75851;SDS011;64500;52.632;20.656;2022-10-30T00:45:16;22.50;;;11.00;;
75851;SDS011;64500;52.632;20.656;2022-10-30T00:50:29;23.50;;;11.30;;
75851;SDS011;64500;52.632;20.656;2022-10-30T00:55:38;20.40;;;11.30;;
75851;SDS011;64500;52.632;20.656;2022-10-30T00:58:11;19.60;;;11.00;;
75851;SDS011;64500;52.632;20.656;2022-10-30T01:00:42;18.70;;;11.30;;
75851;SDS011;64500;52.632;20.656;2022-10-30T01:05:41;23.70;;;11.30;;
75851;SDS011;64500;52.632;20.656;2022-10-30T01:08:14;18.40;;;10.50;;
75851;SDS011;64500;52.632;20.656;2022-10-30T01:10:41;16.50;;;10.10;;
75851;SDS011;64500;52.632;20.656;2022-10-30T01:13:08;19.50;;;10.60;;
75851;SDS011;64500;52.632;20.656;2022-10-30T01:15:37;17.40;;;10.20;;
75851;SDS011;64500;52.632;20.656;2022-10-30T01:23:52;20.00;;;9.80;;
75851;SDS011;64500;52.632;20.656;2022-10-30T01:32:48;22.50;;;10.30;;
75851;SDS011;64500;52.632;20.656;2022-10-30T01:34:58;18.30;;;8.40;;
75851;SDS011;64500;52.632;20.656;2022-10-30T01:37:53;18.60;;;9.00;;
75851;SDS011;64500;52.632;20.656;2022-10-30T01:40:37;18.60;;;9.80;;
75851;SDS011;64500;52.632;20.656;2022-10-30T01:43:04;21.50;;;10.40;;
75851;SDS011;64500;52.632;20.656;2022-10-30T01:45:42;17.30;;;8.80;;
75851;SDS011;64500;52.632;20.656;2022-10-30T01:51:24;18.40;;;8.80;;
75851;SDS011;64500;52.632;20.656;2022-10-30T01:59:59;18.20;;;8.70;;
75851;SDS011;64500;52.632;20.656;2022-10-30T02:02:30;18.20;;;8.60;;
75851;SDS011;64500;52.632;20.656;2022-10-30T02:04:58;18.60;;;8.80;;
75851;SDS011;64500;52.632;20.656;2022-10-30T02:07:26;20.40;;;8.60;;
75851;SDS011;64500;52.632;20.656;2022-10-30T02:09:53;20.30;;;9.30;;
75851;SDS011;64500;52.632;20.656;2022-10-30T02:12:21;18.70;;;9.60;;
75851;SDS011;64500;52.632;20.656;2022-10-30T02:14:53;19.50;;;10.00;;
75851;SDS011;64500;52.632;20.656;2022-10-30T02:17:23;18.00;;;9.40;;
75851;SDS011;64500;52.632;20.656;2022-10-30T02:19:52;16.40;;;8.70;;
75851;SDS011;64500;52.632;20.656;2022-10-30T02:22:19;16.90;;;9.30;;
75851;SDS011;64500;52.632;20.656;2022-10-30T02:24:46;19.10;;;9.50;;
75851;SDS011;64500;52.632;20.656;2022-10-30T02:27:13;15.60;;;8.80;;
75851;SDS011;64500;52.632;20.656;2022-10-30T02:29:40;19.40;;;9.10;;
75851;SDS011;64500;52.632;20.656;2022-10-30T02:32:07;17.40;;;8.90;;
75851;SDS011;64500;52.632;20.656;2022-10-30T02:34:33;16.30;;;10.00;;
75851;SDS011;64500;52.632;20.656;2022-10-30T02:37:00;20.20;;;8.50;;
75851;SDS011;64500;52.632;20.656;2022-10-30T02:39:28;16.60;;;8.50;;
75851;SDS011;64500;52.632;20.656;2022-10-30T02:41:54;18.40;;;8.30;;
75851;SDS011;64500;52.632;20.656;2022-10-30T02:44:21;18.90;;;8.80;;
75851;SDS011;64500;52.632;20.656;2022-10-30T02:46:48;17.50;;;8.40;;
75851;SDS011;64500;52.632;20.656;2022-10-30T02:49:15;18.60;;;8.70;;
75851;SDS011;64500;52.632;20.656;2022-10-30T02:51:42;17.40;;;9.60;;
75851;SDS011;64500;52.632;20.656;2022-10-30T02:54:08;17.60;;;8.50;;
75851;SDS011;64500;52.632;20.656;2022-10-30T02:56:35;17.50;;;9.00;;
75851;SDS011;64500;52.632;20.656;2022-10-30T02:59:05;19.60;;;8.10;;
75851;SDS011;64500;52.632;20.656;2022-10-30T03:01:32;16.60;;;8.80;;
75851;SDS011;64500;52.632;20.656;2022-10-30T03:03:58;17.70;;;9.90;;
75851;SDS011;64500;52.632;20.656;2022-10-30T03:06:25;18.70;;;10.40;;
75851;SDS011;64500;52.632;20.656;2022-10-30T03:08:52;26.00;;;10.30;;
75851;SDS011;64500;52.632;20.656;2022-10-30T03:11:19;17.50;;;9.30;;
75851;SDS011;64500;52.632;20.656;2022-10-30T03:13:47;19.50;;;9.80;;
75851;SDS011;64500;52.632;20.656;2022-10-30T03:16:15;17.50;;;9.20;;
75851;SDS011;64500;52.632;20.656;2022-10-30T03:18:44;20.80;;;9.70;;
75851;SDS011;64500;52.632;20.656;2022-10-30T03:21:13;18.00;;;10.60;;
75851;SDS011;64500;52.632;20.656;2022-10-30T03:23:41;16.50;;;10.20;;
75851;SDS011;64500;52.632;20.656;2022-10-30T03:26:08;22.40;;;10.70;;
75851;SDS011;64500;52.632;20.656;2022-10-30T03:28:35;20.20;;;10.90;;
75851;SDS011;64500;52.632;20.656;2022-10-30T03:31:03;19.60;;;10.50;;
75851;SDS011;64500;52.632;20.656;2022-10-30T03:33:32;18.50;;;10.10;;
75851;SDS011;64500;52.632;20.656;2022-10-30T03:36:02;17.90;;;9.20;;
75851;SDS011;64500;52.632;20.656;2022-10-30T03:38:30;20.20;;;9.90;;
75851;SDS011;64500;52.632;20.656;2022-10-30T03:40:58;20.00;;;10.90;;
75851;SDS011;64500;52.632;20.656;2022-10-30T03:43:25;19.70;;;10.90;;
75851;SDS011;64500;52.632;20.656;2022-10-30T03:45:53;21.10;;;10.60;;
75851;SDS011;64500;52.632;20.656;2022-10-30T03:48:22;20.40;;;10.40;;
75851;SDS011;64500;52.632;20.656;2022-10-30T03:50:57;21.70;;;10.30;;
75851;SDS011;64500;52.632;20.656;2022-10-30T03:53:25;22.50;;;10.10;;
75851;SDS011;64500;52.632;20.656;2022-10-30T03:55:57;22.30;;;10.30;;
75851;SDS011;64500;52.632;20.656;2022-10-30T03:58:28;20.90;;;11.30;;
75851;SDS011;64500;52.632;20.656;2022-10-30T04:00:59;18.70;;;10.90;;
75851;SDS011;64500;52.632;20.656;2022-10-30T04:03:29;18.60;;;10.30;;
75851;SDS011;64500;52.632;20.656;2022-10-30T04:05:56;21.30;;;11.60;;
75851;SDS011;64500;52.632;20.656;2022-10-30T04:08:23;18.40;;;10.30;;
75851;SDS011;64500;52.632;20.656;2022-10-30T04:10:50;19.90;;;11.00;;
75851;SDS011;64500;52.632;20.656;2022-10-30T04:13:16;18.50;;;10.40;;
75851;SDS011;64500;52.632;20.656;2022-10-30T04:15:45;21.20;;;11.40;;
75851;SDS011;64500;52.632;20.656;2022-10-30T04:18:13;21.00;;;11.20;;
75851;SDS011;64500;52.632;20.656;2022-10-30T04:20:42;21.10;;;11.20;;
75851;SDS011;64500;52.632;20.656;2022-10-30T04:23:12;18.20;;;10.30;;
75851;SDS011;64500;52.632;20.656;2022-10-30T04:25:43;21.20;;;9.50;;
75851;SDS011;64500;52.632;20.656;2022-10-30T04:28:10;18.60;;;9.70;;
75851;SDS011;64500;52.632;20.656;2022-10-30T04:30:37;20.20;;;10.20;;
75851;SDS011;64500;52.632;20.656;2022-10-30T04:33:05;20.00;;;10.70;;
75851;SDS011;64500;52.632;20.656;2022-10-30T04:35:36;17.50;;;10.10;;
75851;SDS011;64500;52.632;20.656;2022-10-30T04:38:07;17.20;;;10.60;;
75851;SDS011;64500;52.632;20.656;2022-10-30T04:40:45;20.50;;;10.80;;
75851;SDS011;64500;52.632;20.656;2022-10-30T04:43:12;18.30;;;10.50;;
75851;SDS011;64500;52.632;20.656;2022-10-30T04:45:39;19.90;;;9.70;;
75851;SDS011;64500;52.632;20.656;2022-10-30T04:48:11;17.40;;;9.90;;
75851;SDS011;64500;52.632;20.656;2022-10-30T04:50:40;20.00;;;10.80;;
75851;SDS011;64500;52.632;20.656;2022-10-30T04:53:10;19.60;;;10.60;;
75851;SDS011;64500;52.632;20.656;2022-10-30T04:55:39;17.50;;;10.50;;
75851;SDS011;64500;52.632;20.656;2022-10-30T04:58:06;18.90;;;10.20;;
75851;SDS011;64500;52.632;20.656;2022-10-30T05:00:34;20.10;;;10.70;;
75851;SDS011;64500;52.632;20.656;2022-10-30T05:03:01;21.50;;;10.50;;
75851;SDS011;64500;52.632;20.656;2022-10-30T05:05:29;21.50;;;10.70;;
75851;SDS011;64500;52.632;20.656;2022-10-30T05:07:56;20.00;;;10.60;;
75851;SDS011;64500;52.632;20.656;2022-10-30T05:10:23;18.20;;;10.30;;
75851;SDS011;64500;52.632;20.656;2022-10-30T05:12:50;20.80;;;10.90;;
75851;SDS011;64500;52.632;20.656;2022-10-30T05:15:19;19.50;;;10.80;;
75851;SDS011;64500;52.632;20.656;2022-10-30T05:17:49;24.00;;;11.30;;
75851;SDS011;64500;52.632;20.656;2022-10-30T05:20:18;20.60;;;10.40;;
75851;SDS011;64500;52.632;20.656;2022-10-30T05:22:45;20.20;;;11.20;;
75851;SDS011;64500;52.632;20.656;2022-10-30T05:25:19;22.10;;;11.90;;
75851;SDS011;64500;52.632;20.656;2022-10-30T05:27:46;20.50;;;11.00;;
75851;SDS011;64500;52.632;20.656;2022-10-30T05:30:13;19.50;;;10.60;;
75851;SDS011;64500;52.632;20.656;2022-10-30T05:32:40;20.10;;;10.50;;
75851;SDS011;64500;52.632;20.656;2022-10-30T05:35:07;19.80;;;11.40;;
75851;SDS011;64500;52.632;20.656;2022-10-30T05:37:34;18.20;;;11.20;;
75851;SDS011;64500;52.632;20.656;2022-10-30T05:40:01;20.50;;;10.80;;
75851;SDS011;64500;52.632;20.656;2022-10-30T05:42:28;19.30;;;11.30;;
75851;SDS011;64500;52.632;20.656;2022-10-30T05:44:55;19.70;;;11.60;;
75851;SDS011;64500;52.632;20.656;2022-10-30T05:47:23;20.00;;;12.20;;
75851;SDS011;64500;52.632;20.656;2022-10-30T05:49:49;22.70;;;11.50;;
75851;SDS011;64500;52.632;20.656;2022-10-30T05:52:16;19.00;;;10.50;;
75851;SDS011;64500;52.632;20.656;2022-10-30T05:54:43;21.40;;;10.60;;
75851;SDS011;64500;52.632;20.656;2022-10-30T05:57:09;18.00;;;10.90;;
75851;SDS011;64500;52.632;20.656;2022-10-30T05:59:36;19.10;;;10.40;;
75851;SDS011;64500;52.632;20.656;2022-10-30T06:02:03;19.50;;;11.40;;
75851;SDS011;64500;52.632;20.656;2022-10-30T06:04:30;24.60;;;12.90;;
75851;SDS011;64500;52.632;20.656;2022-10-30T06:06:56;20.30;;;10.50;;
75851;SDS011;64500;52.632;20.656;2022-10-30T06:09:23;22.70;;;10.80;;
75851;SDS011;64500;52.632;20.656;2022-10-30T06:11:50;18.60;;;11.30;;
75851;SDS011;64500;52.632;20.656;2022-10-30T06:14:17;21.90;;;11.00;;
75851;SDS011;64500;52.632;20.656;2022-10-30T06:16:43;21.50;;;10.70;;
75851;SDS011;64500;52.632;20.656;2022-10-30T06:19:10;17.90;;;10.60;;
75851;SDS011;64500;52.632;20.656;2022-10-30T06:21:37;20.10;;;10.80;;
75851;SDS011;64500;52.632;20.656;2022-10-30T06:24:04;19.30;;;10.50;;
75851;SDS011;64500;52.632;20.656;2022-10-30T06:26:31;19.80;;;10.50;;
75851;SDS011;64500;52.632;20.656;2022-10-30T06:28:58;19.20;;;10.50;;
75851;SDS011;64500;52.632;20.656;2022-10-30T06:31:26;17.70;;;10.20;;
75851;SDS011;64500;52.632;20.656;2022-10-30T06:33:52;19.80;;;11.40;;
75851;SDS011;64500;52.632;20.656;2022-10-30T06:36:19;20.50;;;11.00;;
75851;SDS011;64500;52.632;20.656;2022-10-30T06:38:46;16.20;;;9.20;;
75851;SDS011;64500;52.632;20.656;2022-10-30T06:41:12;19.30;;;10.60;;
75851;SDS011;64500;52.632;20.656;2022-10-30T06:43:39;18.80;;;10.30;;
75851;SDS011;64500;52.632;20.656;2022-10-30T06:46:06;20.00;;;9.70;;
75851;SDS011;64500;52.632;20.656;2022-10-30T06:48:33;20.10;;;11.30;;
75851;SDS011;64500;52.632;20.656;2022-10-30T06:51:00;19.80;;;10.60;;
75851;SDS011;64500;52.632;20.656;2022-10-30T06:53:28;18.50;;;10.00;;
75851;SDS011;64500;52.632;20.656;2022-10-30T06:55:55;18.10;;;10.10;;
75851;SDS011;64500;52.632;20.656;2022-10-30T06:58:27;18.80;;;10.70;;
75851;SDS011;64500;52.632;20.656;2022-10-30T07:00:54;23.30;;;11.00;;
75851;SDS011;64500;52.632;20.656;2022-10-30T07:03:21;20.40;;;10.90;;
75851;SDS011;64500;52.632;20.656;2022-10-30T07:05:48;18.20;;;10.70;;
75851;SDS011;64500;52.632;20.656;2022-10-30T07:08:14;18.30;;;10.90;;
75851;SDS011;64500;52.632;20.656;2022-10-30T07:10:41;19.00;;;10.70;;
75851;SDS011;64500;52.632;20.656;2022-10-30T07:13:08;19.20;;;11.20;;
75851;SDS011;64500;52.632;20.656;2022-10-30T07:15:34;22.60;;;11.30;;
75851;SDS011;64500;52.632;20.656;2022-10-30T07:18:02;20.50;;;11.40;;
75851;SDS011;64500;52.632;20.656;2022-10-30T07:20:30;21.10;;;11.70;;
75851;SDS011;64500;52.632;20.656;2022-10-30T07:22:59;21.00;;;11.30;;
75851;SDS011;64500;52.632;20.656;2022-10-30T07:25:27;22.70;;;10.60;;
75851;SDS011;64500;52.632;20.656;2022-10-30T07:27:55;23.60;;;11.40;;
75851;SDS011;64500;52.632;20.656;2022-10-30T07:30:24;19.60;;;10.60;;
75851;SDS011;64500;52.632;20.656;2022-10-30T07:32:59;23.20;;;10.70;;
75851;SDS011;64500;52.632;20.656;2022-10-30T07:35:28;19.30;;;10.80;;
75851;SDS011;64500;52.632;20.656;2022-10-30T07:37:59;22.80;;;11.10;;
75851;SDS011;64500;52.632;20.656;2022-10-30T07:40:31;22.30;;;11.10;;
75851;SDS011;64500;52.632;20.656;2022-10-30T07:42:58;19.00;;;10.80;;
75851;SDS011;64500;52.632;20.656;2022-10-30T07:45:26;23.10;;;11.50;;
75851;SDS011;64500;52.632;20.656;2022-10-30T07:47:53;19.60;;;12.40;;
75851;SDS011;64500;52.632;20.656;2022-10-30T07:50:21;22.00;;;12.30;;
75851;SDS011;64500;52.632;20.656;2022-10-30T07:52:48;21.70;;;12.00;;
75851;SDS011;64500;52.632;20.656;2022-10-30T07:55:15;18.50;;;11.40;;
75851;SDS011;64500;52.632;20.656;2022-10-30T07:57:42;25.70;;;12.20;;
75851;SDS011;64500;52.632;20.656;2022-10-30T08:00:10;27.20;;;12.60;;
75851;SDS011;64500;52.632;20.656;2022-10-30T08:02:38;21.80;;;13.00;;
75851;SDS011;64500;52.632;20.656;2022-10-30T08:05:06;19.90;;;11.80;;
75851;SDS011;64500;52.632;20.656;2022-10-30T08:07:34;25.00;;;12.70;;
75851;SDS011;64500;52.632;20.656;2022-10-30T08:10:03;21.70;;;11.90;;
75851;SDS011;64500;52.632;20.656;2022-10-30T08:12:31;23.20;;;12.90;;
75851;SDS011;64500;52.632;20.656;2022-10-30T08:14:59;22.70;;;11.90;;
75851;SDS011;64500;52.632;20.656;2022-10-30T08:17:27;20.10;;;11.90;;
75851;SDS011;64500;52.632;20.656;2022-10-30T08:19:54;24.40;;;11.60;;
75851;SDS011;64500;52.632;20.656;2022-10-30T08:22:22;23.00;;;12.70;;
75851;SDS011;64500;52.632;20.656;2022-10-30T08:24:49;19.60;;;12.10;;
75851;SDS011;64500;52.632;20.656;2022-10-30T08:27:17;18.20;;;11.20;;
75851;SDS011;64500;52.632;20.656;2022-10-30T08:29:44;24.10;;;11.70;;
75851;SDS011;64500;52.632;20.656;2022-10-30T08:32:11;20.10;;;12.20;;
75851;SDS011;64500;52.632;20.656;2022-10-30T08:34:39;20.40;;;11.40;;
75851;SDS011;64500;52.632;20.656;2022-10-30T08:37:06;19.20;;;10.80;;
75851;SDS011;64500;52.632;20.656;2022-10-30T08:39:33;20.20;;;11.90;;
75851;SDS011;64500;52.632;20.656;2022-10-30T08:42:00;21.30;;;11.70;;
75851;SDS011;64500;52.632;20.656;2022-10-30T08:44:27;19.00;;;11.30;;
75851;SDS011;64500;52.632;20.656;2022-10-30T08:46:54;18.80;;;11.70;;
75851;SDS011;64500;52.632;20.656;2022-10-30T08:49:21;22.70;;;11.40;;
75851;SDS011;64500;52.632;20.656;2022-10-30T08:51:48;20.60;;;10.70;;
75851;SDS011;64500;52.632;20.656;2022-10-30T08:54:14;17.60;;;10.50;;
75851;SDS011;64500;52.632;20.656;2022-10-30T08:56:41;17.50;;;9.90;;
75851;SDS011;64500;52.632;20.656;2022-10-30T08:59:08;18.40;;;9.60;;
75851;SDS011;64500;52.632;20.656;2022-10-30T09:01:35;18.50;;;10.00;;
75851;SDS011;64500;52.632;20.656;2022-10-30T09:04:02;19.30;;;10.60;;
75851;SDS011;64500;52.632;20.656;2022-10-30T09:06:29;23.10;;;11.30;;
75851;SDS011;64500;52.632;20.656;2022-10-30T09:08:57;24.30;;;11.20;;
75851;SDS011;64500;52.632;20.656;2022-10-30T09:11:24;19.80;;;10.10;;
75851;SDS011;64500;52.632;20.656;2022-10-30T09:13:50;18.20;;;9.80;;
75851;SDS011;64500;52.632;20.656;2022-10-30T09:16:17;18.90;;;10.20;;
75851;SDS011;64500;52.632;20.656;2022-10-30T09:18:44;17.30;;;10.10;;
75851;SDS011;64500;52.632;20.656;2022-10-30T09:21:11;19.10;;;10.30;;
75851;SDS011;64500;52.632;20.656;2022-10-30T09:23:38;17.00;;;9.50;;
75851;SDS011;64500;52.632;20.656;2022-10-30T09:26:04;21.40;;;11.20;;
75851;SDS011;64500;52.632;20.656;2022-10-30T09:28:31;17.70;;;10.20;;
75851;SDS011;64500;52.632;20.656;2022-10-30T09:30:59;21.60;;;10.00;;
75851;SDS011;64500;52.632;20.656;2022-10-30T09:33:27;20.10;;;9.60;;
75851;SDS011;64500;52.632;20.656;2022-10-30T09:35:54;19.90;;;10.00;;
75851;SDS011;64500;52.632;20.656;2022-10-30T09:38:21;18.10;;;10.40;;
75851;SDS011;64500;52.632;20.656;2022-10-30T09:41:05;18.20;;;9.90;;
75851;SDS011;64500;52.632;20.656;2022-10-30T09:57:21;18.50;;;9.10;;
75851;SDS011;64500;52.632;20.656;2022-10-30T09:59:54;17.00;;;8.40;;
75851;SDS011;64500;52.632;20.656;2022-10-30T10:02:35;15.50;;;8.20;;
75851;SDS011;64500;52.632;20.656;2022-10-30T10:05:14;19.00;;;8.20;;
75851;SDS011;64500;52.632;20.656;2022-10-30T10:07:48;16.90;;;8.60;;
75851;SDS011;64500;52.632;20.656;2022-10-30T10:10:24;14.70;;;7.10;;
75851;SDS011;64500;52.632;20.656;2022-10-30T10:13:00;13.70;;;7.30;;
75851;SDS011;64500;52.632;20.656;2022-10-30T10:15:33;14.30;;;7.80;;
75851;SDS011;64500;52.632;20.656;2022-10-30T10:18:20;16.70;;;7.60;;
75851;SDS011;64500;52.632;20.656;2022-10-30T10:20:52;16.50;;;7.60;;
75851;SDS011;64500;52.632;20.656;2022-10-30T10:25:59;14.10;;;7.00;;
75851;SDS011;64500;52.632;20.656;2022-10-30T10:39:29;12.30;;;5.90;;
75851;SDS011;64500;52.632;20.656;2022-10-30T10:47:49;12.40;;;5.30;;
75851;SDS011;64500;52.632;20.656;2022-10-30T10:50:22;13.50;;;5.10;;
75851;SDS011;64500;52.632;20.656;2022-10-30T10:55:24;11.60;;;4.90;;
75851;SDS011;64500;52.632;20.656;2022-10-30T10:57:55;10.90;;;4.10;;
75851;SDS011;64500;52.632;20.656;2022-10-30T11:00:28;8.40;;;4.00;;
75851;SDS011;64500;52.632;20.656;2022-10-30T11:05:53;11.80;;;4.30;;
75851;SDS011;64500;52.632;20.656;2022-10-30T11:08:29;12.50;;;4.10;;
75851;SDS011;64500;52.632;20.656;2022-10-30T11:10:58;10.20;;;3.80;;
75851;SDS011;64500;52.632;20.656;2022-10-30T11:13:34;11.70;;;3.70;;
75851;SDS011;64500;52.632;20.656;2022-10-30T11:18:54;8.60;;;3.50;;
75851;SDS011;64500;52.632;20.656;2022-10-30T11:21:25;8.10;;;3.20;;
75851;SDS011;64500;52.632;20.656;2022-10-30T11:23:53;7.70;;;3.10;;
75851;SDS011;64500;52.632;20.656;2022-10-30T11:33:53;9.20;;;3.00;;
75851;SDS011;64500;52.632;20.656;2022-10-30T11:36:23;7.60;;;3.00;;
75851;SDS011;64500;52.632;20.656;2022-10-30T11:38:51;9.70;;;2.90;;
75851;SDS011;64500;52.632;20.656;2022-10-30T11:41:23;7.70;;;3.00;;
75851;SDS011;64500;52.632;20.656;2022-10-30T11:43:51;10.90;;;3.90;;
75851;SDS011;64500;52.632;20.656;2022-10-30T11:46:20;9.60;;;3.30;;
75851;SDS011;64500;52.632;20.656;2022-10-30T11:48:48;8.60;;;3.40;;
75851;SDS011;64500;52.632;20.656;2022-10-30T11:51:36;9.70;;;3.30;;
75851;SDS011;64500;52.632;20.656;2022-10-30T11:54:05;9.90;;;3.30;;
75851;SDS011;64500;52.632;20.656;2022-10-30T11:56:33;10.40;;;3.30;;
75851;SDS011;64500;52.632;20.656;2022-10-30T11:59:02;9.60;;;3.10;;
75851;SDS011;64500;52.632;20.656;2022-10-30T12:01:33;8.30;;;3.00;;
75851;SDS011;64500;52.632;20.656;2022-10-30T12:04:12;6.90;;;2.70;;
75851;SDS011;64500;52.632;20.656;2022-10-30T12:07:16;8.70;;;3.00;;
75851;SDS011;64500;52.632;20.656;2022-10-30T12:09:49;7.80;;;2.80;;
75851;SDS011;64500;52.632;20.656;2022-10-30T12:12:23;7.30;;;2.40;;
75851;SDS011;64500;52.632;20.656;2022-10-30T12:14:52;6.80;;;2.10;;
75851;SDS011;64500;52.632;20.656;2022-10-30T12:17:20;6.40;;;2.50;;
75851;SDS011;64500;52.632;20.656;2022-10-30T12:19:49;9.40;;;2.90;;
75851;SDS011;64500;52.632;20.656;2022-10-30T12:22:32;9.10;;;2.60;;
75851;SDS011;64500;52.632;20.656;2022-10-30T12:25:05;8.70;;;2.70;;
75851;SDS011;64500;52.632;20.656;2022-10-30T12:27:41;7.80;;;2.70;;
75851;SDS011;64500;52.632;20.656;2022-10-30T12:30:18;9.40;;;3.00;;
75851;SDS011;64500;52.632;20.656;2022-10-30T12:35:47;7.70;;;2.70;;
75851;SDS011;64500;52.632;20.656;2022-10-30T12:38:26;8.20;;;3.00;;
75851;SDS011;64500;52.632;20.656;2022-10-30T12:41:54;6.40;;;2.40;;
75851;SDS011;64500;52.632;20.656;2022-10-30T12:46:50;8.10;;;3.10;;
75851;SDS011;64500;52.632;20.656;2022-10-30T12:52:00;8.90;;;2.60;;
75851;SDS011;64500;52.632;20.656;2022-10-30T12:57:17;7.50;;;2.80;;
75851;SDS011;64500;52.632;20.656;2022-10-30T13:00:03;9.00;;;3.00;;
75851;SDS011;64500;52.632;20.656;2022-10-30T13:05:25;8.20;;;2.50;;
75851;SDS011;64500;52.632;20.656;2022-10-30T13:08:16;9.40;;;2.40;;
75851;SDS011;64500;52.632;20.656;2022-10-30T13:10:52;6.90;;;2.30;;
75851;SDS011;64500;52.632;20.656;2022-10-30T13:13:26;8.20;;;2.80;;
75851;SDS011;64500;52.632;20.656;2022-10-30T13:15:57;8.30;;;2.30;;
75851;SDS011;64500;52.632;20.656;2022-10-30T13:18:28;7.90;;;2.20;;
75851;SDS011;64500;52.632;20.656;2022-10-30T13:29:05;8.60;;;2.30;;
75851;SDS011;64500;52.632;20.656;2022-10-30T13:31:43;8.30;;;2.70;;
75851;SDS011;64500;52.632;20.656;2022-10-30T13:45:45;8.20;;;2.40;;
75851;SDS011;64500;52.632;20.656;2022-10-30T13:51:09;10.70;;;2.70;;
75851;SDS011;64500;52.632;20.656;2022-10-30T13:53:45;8.10;;;2.50;;
75851;SDS011;64500;52.632;20.656;2022-10-30T13:56:16;7.10;;;2.70;;
75851;SDS011;64500;52.632;20.656;2022-10-30T14:09:58;9.40;;;2.90;;
75851;SDS011;64500;52.632;20.656;2022-10-30T14:20:40;10.30;;;4.00;;
75851;SDS011;64500;52.632;20.656;2022-10-30T14:23:18;13.20;;;5.10;;
75851;SDS011;64500;52.632;20.656;2022-10-30T14:28:36;13.30;;;6.40;;
75851;SDS011;64500;52.632;20.656;2022-10-30T14:31:09;14.20;;;6.50;;
75851;SDS011;64500;52.632;20.656;2022-10-30T14:33:56;14.20;;;6.40;;
75851;SDS011;64500;52.632;20.656;2022-10-30T14:36:24;16.60;;;6.60;;
75851;SDS011;64500;52.632;20.656;2022-10-30T14:38:52;14.20;;;6.60;;
75851;SDS011;64500;52.632;20.656;2022-10-30T14:41:23;13.50;;;5.90;;
75851;SDS011;64500;52.632;20.656;2022-10-30T14:52:34;14.60;;;5.10;;
75851;SDS011;64500;52.632;20.656;2022-10-30T14:55:21;14.40;;;5.30;;
75851;SDS011;64500;52.632;20.656;2022-10-30T15:00:27;15.50;;;6.20;;
75851;SDS011;64500;52.632;20.656;2022-10-30T15:06:03;13.60;;;6.30;;
75851;SDS011;64500;52.632;20.656;2022-10-30T15:11:35;13.50;;;6.60;;
75851;SDS011;64500;52.632;20.656;2022-10-30T15:14:20;13.70;;;6.70;;
75851;SDS011;64500;52.632;20.656;2022-10-30T15:16:53;13.50;;;7.00;;
75851;SDS011;64500;52.632;20.656;2022-10-30T15:19:21;14.10;;;6.70;;
75851;SDS011;64500;52.632;20.656;2022-10-30T15:21:53;15.70;;;7.40;;
75851;SDS011;64500;52.632;20.656;2022-10-30T15:24:22;14.90;;;7.10;;
75851;SDS011;64500;52.632;20.656;2022-10-30T15:26:55;16.90;;;7.60;;
75851;SDS011;64500;52.632;20.656;2022-10-30T15:29:31;16.80;;;7.90;;
75851;SDS011;64500;52.632;20.656;2022-10-30T15:32:13;15.90;;;7.20;;
75851;SDS011;64500;52.632;20.656;2022-10-30T15:34:52;17.30;;;8.70;;
75851;SDS011;64500;52.632;20.656;2022-10-30T15:37:25;19.00;;;8.50;;
75851;SDS011;64500;52.632;20.656;2022-10-30T15:42:45;17.00;;;7.70;;
75851;SDS011;64500;52.632;20.656;2022-10-30T15:45:17;15.90;;;6.90;;
75851;SDS011;64500;52.632;20.656;2022-10-30T15:47:47;14.10;;;6.90;;
75851;SDS011;64500;52.632;20.656;2022-10-30T15:50:22;19.30;;;9.50;;
75851;SDS011;64500;52.632;20.656;2022-10-30T15:52:49;14.50;;;7.10;;
75851;SDS011;64500;52.632;20.656;2022-10-30T15:55:19;13.00;;;7.10;;
75851;SDS011;64500;52.632;20.656;2022-10-30T15:57:52;13.80;;;7.00;;
75851;SDS011;64500;52.632;20.656;2022-10-30T16:00:24;15.90;;;7.60;;
75851;SDS011;64500;52.632;20.656;2022-10-30T16:05:32;17.50;;;7.50;;
75851;SDS011;64500;52.632;20.656;2022-10-30T16:08:00;18.20;;;9.50;;
75851;SDS011;64500;52.632;20.656;2022-10-30T16:10:34;16.30;;;7.90;;
75851;SDS011;64500;52.632;20.656;2022-10-30T16:13:02;13.50;;;6.60;;
75851;SDS011;64500;52.632;20.656;2022-10-30T16:15:33;18.90;;;8.20;;
75851;SDS011;64500;52.632;20.656;2022-10-30T16:20:34;11.40;;;5.40;;
75851;SDS011;64500;52.632;20.656;2022-10-30T16:23:02;13.80;;;6.00;;
75851;SDS011;64500;52.632;20.656;2022-10-30T16:25:30;13.50;;;5.90;;
75851;SDS011;64500;52.632;20.656;2022-10-30T16:28:03;11.00;;;5.40;;
75851;SDS011;64500;52.632;20.656;2022-10-30T16:30:31;12.50;;;5.90;;
75851;SDS011;64500;52.632;20.656;2022-10-30T16:33:00;28.70;;;16.80;;
75851;SDS011;64500;52.632;20.656;2022-10-30T16:35:28;29.90;;;17.40;;
75851;SDS011;64500;52.632;20.656;2022-10-30T16:37:55;26.40;;;13.60;;
75851;SDS011;64500;52.632;20.656;2022-10-30T16:40:24;24.00;;;10.90;;
75851;SDS011;64500;52.632;20.656;2022-10-30T16:42:54;19.80;;;9.10;;
75851;SDS011;64500;52.632;20.656;2022-10-30T16:47:52;19.50;;;10.40;;
75851;SDS011;64500;52.632;20.656;2022-10-30T16:50:25;18.60;;;7.00;;
75851;SDS011;64500;52.632;20.656;2022-10-30T16:53:06;18.70;;;9.20;;
75851;SDS011;64500;52.632;20.656;2022-10-30T16:55:42;42.80;;;21.80;;
75851;SDS011;64500;52.632;20.656;2022-10-30T16:58:10;43.20;;;20.90;;
75851;SDS011;64500;52.632;20.656;2022-10-30T17:00:39;51.70;;;26.80;;
75851;SDS011;64500;52.632;20.656;2022-10-30T17:03:13;66.40;;;35.90;;
75851;SDS011;64500;52.632;20.656;2022-10-30T17:05:40;43.30;;;26.10;;
75851;SDS011;64500;52.632;20.656;2022-10-30T17:10:54;24.80;;;14.00;;
75851;SDS011;64500;52.632;20.656;2022-10-30T17:18:49;12.20;;;6.90;;
75851;SDS011;64500;52.632;20.656;2022-10-30T17:21:21;16.20;;;8.10;;
75851;SDS011;64500;52.632;20.656;2022-10-30T17:23:56;18.10;;;6.70;;